Погода Алашна 2 недели

Южно-Казахстанская область, Казахстан

17 - 30 июля
  • 17июля
    Сегодня
    +20°
    +29°
    Небольшая облачность, возможен дождь с грозой
    ВремяПогодаТемператураВлажностьДавлениеВетер, м/сВероятность осадков
    02:00Практически безоблачно+20°C83 %717 мм2.8 м/с8 %
    05:00Практически безоблачно+20°C81 %716 мм2.1 м/с3 %
    08:00Облачно с прояснениями+25°C49 %717 мм1.8 м/с12 %
    11:00Небольшая облачность+27°C46 %717 мм0.9 м/с25 %
    14:00Небольшая облачность, возможен дождь с грозой+28°C41 %717 мм4.5 м/с24 %
    17:00Практически безоблачно+27°C46 %717 мм3.8 м/с14 %
    20:00Ясно и безоблачно+25°C57 %716 мм1.4 м/с3 %
    23:00Ясно и безоблачно+23°C59 %716 мм2.4 м/с2 %
  • 18июля
    Четверг
    +21°
    +31°
    Ясно и безоблачно
    ВремяПогодаТемператураВлажностьДавлениеВетер, м/сВероятность осадков
    02:00Ясно и безоблачно+21°C64 %715 мм1.3 м/с2 %
    05:00Ясно и безоблачно+20°C68 %716 мм1.3 м/с2 %
    08:00Ясно и безоблачно+26°C51 %717 мм1.0 м/с2 %
    11:00Ясно и безоблачно+28°C43 %717 мм3.8 м/с4 %
    14:00Ясно и безоблачно+30°C35 %716 мм3.8 м/с10 %
    17:00Ясно и безоблачно+30°C36 %716 мм3.2 м/с6 %
    20:00Практически безоблачно+26°C48 %716 мм2.1 м/с5 %
    23:00Ясно и безоблачно+24°C56 %716 мм2.4 м/с3 %
  • 19июля
    Пятница
    +21°
    +29°
    Практически безоблачно
    ВремяПогодаТемператураВлажностьДавлениеВетер, м/сВероятность осадков
    02:00Ясно и безоблачно+23°C62 %715 мм2.0 м/с2 %
    05:00Практически безоблачно+22°C60 %715 мм1.3 м/с5 %
    08:00Облачно с прояснениями+24°C57 %716 мм4.2 м/с12 %
    11:00Небольшая облачность+27°C53 %716 мм1.2 м/с45 %
    14:00Практически безоблачно+29°C45 %715 мм3.3 м/с35 %
    17:00Ясно и безоблачно+29°C46 %715 мм2.6 м/с28 %
    20:00Ясно и безоблачно+26°C57 %715 мм1.6 м/с9 %
    23:00Ясно и безоблачно+23°C62 %715 мм1.8 м/с3 %
  • 20июля
    Суббота
    +20°
    +31°
    Ясно и безоблачно
    ВремяПогодаТемператураВлажностьДавлениеВетер, м/сВероятность осадков
    02:00Ясно и безоблачно+22°C60 %714 мм2.3 м/с2 %
    05:00Ясно и безоблачно+21°C56 %714 мм1.0 м/с2 %
    08:00Ясно и безоблачно+26°C37 %716 мм1.4 м/с2 %
    11:00Ясно и безоблачно+29°C27 %717 мм3.8 м/с3 %
    14:00Ясно и безоблачно+30°C25 %717 мм5.0 м/с5 %
    17:00Ясно и безоблачно+29°C26 %717 мм4.5 м/с2 %
    20:00Ясно и безоблачно+27°C31 %717 мм3.5 м/с2 %
    23:00Ясно и безоблачно+24°C36 %717 мм3.9 м/с2 %
  • 21июля
    Воскресенье
    +24°
    +34°
    Облачно с прояснениями
    ВремяПогодаТемператураВлажностьДавлениеВетер, м/сВероятность осадков
    02:00Ясно и безоблачно+22°C44 %716 мм1.8 м/с2 %
    05:00Ясно и безоблачно+21°C45 %716 мм2.7 м/с2 %
    08:00Ясно и безоблачно+28°C31 %718 мм1.1 м/с2 %
    11:00Ясно и безоблачно+31°C23 %718 мм2.1 м/с2 %
    14:00Облачно с прояснениями+33°C19 %718 мм3.5 м/с2 %
    17:00Ясно и безоблачно+33°C17 %717 мм3.9 м/с2 %
    20:00Ясно и безоблачно+28°C27 %717 мм1.8 м/с2 %
    23:00Ясно и безоблачно+27°C31 %717 мм6.4 м/с2 %
Мы используем cookies
Соглашаюсь